createdAt,value
2018-10-19T00:00:20.146Z,28.83
2018-10-19T00:02:51.284Z,27.73
2018-10-19T00:05:22.777Z,29.07
2018-10-19T00:07:54.264Z,29.23
2018-10-19T00:10:25.585Z,32.60
2018-10-19T00:12:57.019Z,29.47
2018-10-19T00:15:28.566Z,29.53
2018-10-19T00:18:00.005Z,28.63
2018-10-19T00:20:31.654Z,28.87
2018-10-19T00:23:02.788Z,31.20
2018-10-19T00:25:34.039Z,28.43
2018-10-19T00:28:05.775Z,27.50
2018-10-19T00:30:37.795Z,28.77
2018-10-19T00:33:09.119Z,30.03
2018-10-19T00:35:41.186Z,27.03
2018-10-19T00:38:11.715Z,26.53
2018-10-19T00:40:43.585Z,27.50
2018-10-19T00:43:14.794Z,28.03
2018-10-19T00:45:46.975Z,29.10
2018-10-19T00:48:20.115Z,27.67
2018-10-19T00:50:50.816Z,27.63
2018-10-19T00:53:20.509Z,27.83
2018-10-19T00:55:52.103Z,27.57
2018-10-19T00:58:22.813Z,29.20
2018-10-19T01:00:54.794Z,29.47
2018-10-19T01:03:26.065Z,27.60
2018-10-19T01:05:57.613Z,29.40
2018-10-19T01:08:29.566Z,27.60
2018-10-19T01:11:04.658Z,27.30
2018-10-19T01:13:36.444Z,28.43
2018-10-19T01:16:07.924Z,27.47
2018-10-19T01:19:44.827Z,29.10
2018-10-19T01:22:16.224Z,27.00
2018-10-19T01:24:47.685Z,27.60
2018-10-19T01:27:19.755Z,28.87
2018-10-19T01:29:50.665Z,29.23
2018-10-19T01:32:21.784Z,29.03
2018-10-19T01:34:53.477Z,29.83
2018-10-19T01:37:24.924Z,28.87
2018-10-19T01:39:56.084Z,27.57
2018-10-19T01:42:27.903Z,27.30
2018-10-19T01:44:59.425Z,27.60
2018-10-19T01:47:31.385Z,29.27
2018-10-19T01:50:02.583Z,32.10
2018-10-19T01:52:32.508Z,32.83
2018-10-19T01:55:04.064Z,30.23
2018-10-19T01:57:35.633Z,29.47
2018-10-19T02:00:07.155Z,28.00
2018-10-19T02:02:37.253Z,28.93
2018-10-19T02:05:08.677Z,30.77
2018-10-19T02:07:40.133Z,27.83
2018-10-19T02:10:11.403Z,27.00
2018-10-19T02:12:42.472Z,27.40
2018-10-19T02:15:13.854Z,27.27
2018-10-19T02:17:45.703Z,25.17
2018-10-19T02:20:17.483Z,25.83
2018-10-19T02:22:48.982Z,26.67
2018-10-19T02:27:54.132Z,30.53
2018-10-19T02:30:25.233Z,27.03
2018-10-19T02:32:56.784Z,25.57
2018-10-19T02:35:28.303Z,24.60
2018-10-19T02:38:00.043Z,25.63
2018-10-19T02:40:31.214Z,26.60
2018-10-19T02:43:02.894Z,25.07
2018-10-19T02:45:35.978Z,25.00
2018-10-19T02:48:07.864Z,27.60
2018-10-19T02:50:39.293Z,26.83
2018-10-19T02:53:10.583Z,24.40
2018-10-19T02:55:41.884Z,27.10
2018-10-19T02:58:13.113Z,25.23
2018-10-19T03:00:44.845Z,27.87
2018-10-19T03:03:16.374Z,27.30
2018-10-19T03:05:48.023Z,25.77
2018-10-19T03:08:19.374Z,25.63
2018-10-19T03:10:51.343Z,26.30
2018-10-19T03:13:23.293Z,27.00
2018-10-19T03:15:56.109Z,25.43
2018-10-19T03:18:28.015Z,24.90
2018-10-19T03:21:00.734Z,25.73
2018-10-19T03:23:32.294Z,27.33
2018-10-19T03:26:04.294Z,26.13
2018-10-19T03:29:41.113Z,24.07
2018-10-19T03:32:12.443Z,26.43
2018-10-19T03:34:43.603Z,26.93
2018-10-19T03:37:15.383Z,24.53
2018-10-19T03:39:47.014Z,26.87
2018-10-19T03:42:18.847Z,30.20
2018-10-19T03:44:50.412Z,34.40
2018-10-19T03:47:22.293Z,36.30
2018-10-19T03:49:53.488Z,32.37
2018-10-19T03:52:24.893Z,32.80
2018-10-19T03:54:55.454Z,31.17
2018-10-19T03:57:26.894Z,28.03
2018-10-19T03:59:58.441Z,31.67
2018-10-19T04:02:30.013Z,30.83
2018-10-19T04:05:01.297Z,29.60
2018-10-19T04:07:31.562Z,29.33
2018-10-19T04:10:02.852Z,30.10
2018-10-19T04:12:34.272Z,26.50
2018-10-19T04:15:05.840Z,24.93
2018-10-19T04:17:35.872Z,26.70
2018-10-19T04:20:07.994Z,27.63
2018-10-19T04:22:39.173Z,27.37
2018-10-19T04:25:10.363Z,28.80
2018-10-19T04:27:40.350Z,27.80
2018-10-19T04:30:11.406Z,26.53
2018-10-19T04:32:43.152Z,27.77
2018-10-19T04:35:14.261Z,30.33
2018-10-19T04:37:45.647Z,29.10
2018-10-19T04:40:20.076Z,30.20
2018-10-19T04:42:51.482Z,28.60
2018-10-19T04:45:23.922Z,30.00
2018-10-19T04:47:55.303Z,31.37
2018-10-19T04:50:25.890Z,29.10
2018-10-19T04:52:56.906Z,27.83
2018-10-19T04:55:28.106Z,26.77
2018-10-19T04:58:00.036Z,28.57
2018-10-19T05:00:29.745Z,29.10
2018-10-19T05:03:01.112Z,28.63
2018-10-19T05:05:32.575Z,30.97
2018-10-19T05:08:04.392Z,30.67
2018-10-19T05:10:35.576Z,27.03
2018-10-19T05:13:07.787Z,30.07
2018-10-19T05:15:40.017Z,31.63
2018-10-19T05:18:11.955Z,30.37
2018-10-19T05:20:43.135Z,31.80
2018-10-19T05:23:15.242Z,30.97
2018-10-19T05:25:47.926Z,27.27
2018-10-19T05:28:20.237Z,29.90
2018-10-19T05:30:51.636Z,29.80
2018-10-19T05:33:23.536Z,30.30
2018-10-19T05:35:55.076Z,29.73
2018-10-19T05:38:27.908Z,28.77
2018-10-19T05:40:59.011Z,29.13
2018-10-19T05:43:30.268Z,32.10
2018-10-19T05:46:02.304Z,30.43
2018-10-19T05:48:34.405Z,29.90
2018-10-19T05:51:06.178Z,30.83
2018-10-19T05:53:36.190Z,28.90
2018-10-19T05:56:08.529Z,29.67
2018-10-19T05:58:40.800Z,31.87
2018-10-19T06:01:10.696Z,28.57
2018-10-19T06:03:42.605Z,27.67
2018-10-19T06:06:13.836Z,30.90
2018-10-19T06:08:45.816Z,28.77
2018-10-19T06:18:19.505Z,28.37
2018-10-19T06:20:50.824Z,30.00
2018-10-19T06:23:22.236Z,25.73
2018-10-19T06:25:53.617Z,24.20
2018-10-19T06:28:28.755Z,25.93
2018-10-19T06:31:00.115Z,25.50
2018-10-19T06:33:31.685Z,25.50
2018-10-19T06:36:03.396Z,23.10
2018-10-19T06:38:46.576Z,22.60
2018-10-19T06:41:17.936Z,27.03
2018-10-19T06:43:49.346Z,24.17
2018-10-19T06:46:21.175Z,27.87
2018-10-19T06:48:53.279Z,30.03
2018-10-19T06:51:24.644Z,29.80
2018-10-19T06:53:56.785Z,29.80
2018-10-19T06:56:30.416Z,24.63
2018-10-19T06:59:02.934Z,25.90
2018-10-19T07:01:32.735Z,28.20
2018-10-19T07:04:03.986Z,28.87
2018-10-19T07:06:34.761Z,25.50
2018-10-19T07:09:06.037Z,28.40
2018-10-19T07:11:37.425Z,23.67
2018-10-19T07:14:10.044Z,30.37
2018-10-19T07:16:41.574Z,25.07
2018-10-19T07:19:13.281Z,26.83
2018-10-19T07:21:44.831Z,25.47
2018-10-19T07:24:16.334Z,24.10
2018-10-19T07:26:47.975Z,25.97
2018-10-19T07:29:19.435Z,25.37
2018-10-19T07:31:49.326Z,31.87
2018-10-19T07:34:20.665Z,27.40
2018-10-19T07:36:52.295Z,29.37
2018-10-19T07:39:23.505Z,28.17
2018-10-19T07:41:54.918Z,28.13
2018-10-19T07:44:26.097Z,26.57
2018-10-19T07:46:56.109Z,27.00
2018-10-19T07:49:27.545Z,29.30
2018-10-19T07:51:57.245Z,28.87
2018-10-19T07:54:28.985Z,28.67
2018-10-19T07:57:00.555Z,28.67
2018-10-19T07:59:32.005Z,29.13
2018-10-19T08:02:03.552Z,31.10
2018-10-19T08:04:35.245Z,28.87
2018-10-19T08:07:07.257Z,28.73
2018-10-19T08:09:39.025Z,28.67
2018-10-19T08:12:10.777Z,29.57
2018-10-19T08:14:42.885Z,30.13
2018-10-19T08:17:14.339Z,30.20
2018-10-19T08:19:45.679Z,29.40
2018-10-19T08:22:16.794Z,28.87
2018-10-19T08:24:48.415Z,32.90
2018-10-19T08:27:20.552Z,29.23
2018-10-19T08:29:52.245Z,29.37
2018-10-19T08:32:23.939Z,29.43
2018-10-19T08:34:55.489Z,28.97
2018-10-19T08:37:26.891Z,28.83
2018-10-19T08:39:58.276Z,29.50
2018-10-19T08:42:29.674Z,28.47
2018-10-19T08:45:00.960Z,30.37
2018-10-19T08:47:32.327Z,28.63
2018-10-19T08:50:03.866Z,32.23
2018-10-19T08:52:35.825Z,28.63
2018-10-19T08:55:05.994Z,29.90
2018-10-19T08:57:37.482Z,28.43
2018-10-19T09:00:10.230Z,28.43
2018-10-19T09:02:41.606Z,30.53
2018-10-19T09:07:54.066Z,31.43
2018-10-19T09:10:25.397Z,27.50
2018-10-19T09:12:56.625Z,28.80
2018-10-19T09:15:28.046Z,29.27
2018-10-19T09:17:59.836Z,29.30
2018-10-19T09:20:32.174Z,28.17
2018-10-19T09:23:03.445Z,29.33
2018-10-19T09:25:35.173Z,31.60
2018-10-19T09:28:07.236Z,29.60
2018-10-19T09:30:38.438Z,28.70
2018-10-19T09:33:10.000Z,30.67
2018-10-19T09:35:41.449Z,28.43
2018-10-19T09:38:11.323Z,28.83
2018-10-19T09:40:42.919Z,30.53
2018-10-19T09:43:14.347Z,32.37
2018-10-19T09:45:46.074Z,31.23
2018-10-19T09:48:18.404Z,30.90
2018-10-19T09:50:56.012Z,29.23
2018-10-19T09:53:27.114Z,30.93
2018-10-19T09:55:58.324Z,30.87
2018-10-19T09:58:30.756Z,31.07
2018-10-19T10:01:02.257Z,32.43
2018-10-19T10:03:33.554Z,33.57
2018-10-19T10:06:04.815Z,30.37
2018-10-19T10:08:37.105Z,32.60
2018-10-19T10:11:08.452Z,32.03
2018-10-19T10:13:40.244Z,31.27
2018-10-19T10:16:11.355Z,33.33
2018-10-19T10:18:42.147Z,32.80
2018-10-19T10:21:12.724Z,32.80
2018-10-19T10:23:44.867Z,34.17
2018-10-19T10:26:16.114Z,34.50
2018-10-19T10:28:47.804Z,34.90
2018-10-19T10:31:18.125Z,34.70
2018-10-19T10:33:50.265Z,35.20
2018-10-19T10:36:21.764Z,36.80
2018-10-19T10:38:53.155Z,36.80
2018-10-19T10:41:23.308Z,39.83
2018-10-19T10:43:54.584Z,39.73
2018-10-19T10:46:26.224Z,38.23
2018-10-19T10:48:57.530Z,38.07
2018-10-19T10:51:29.064Z,37.40
2018-10-19T10:54:00.564Z,39.57
2018-10-19T10:56:36.374Z,41.00
2018-10-19T10:59:07.554Z,41.70
2018-10-19T11:01:39.035Z,44.43
2018-10-19T11:04:10.781Z,43.13
2018-10-19T11:06:42.805Z,41.87
2018-10-19T11:09:14.453Z,48.57
2018-10-19T11:11:45.673Z,45.33
2018-10-19T11:14:18.875Z,45.87
2018-10-19T11:16:50.314Z,45.97
2018-10-19T11:19:20.273Z,48.20
2018-10-19T11:21:51.654Z,48.53
2018-10-19T11:24:23.524Z,48.23
2018-10-19T11:26:54.494Z,48.70
2018-10-19T11:29:24.804Z,47.27
2018-10-19T11:31:55.705Z,48.90
2018-10-19T11:34:26.473Z,51.93
2018-10-19T11:36:56.639Z,49.47
2018-10-19T11:39:28.794Z,50.07
2018-10-19T11:42:00.755Z,53.37
2018-10-19T11:44:31.104Z,54.23
2018-10-19T11:47:01.614Z,54.00
2018-10-19T11:49:32.993Z,53.17
2018-10-19T11:52:04.939Z,49.97
2018-10-19T11:54:34.674Z,50.77
2018-10-19T11:57:06.736Z,57.37
2018-10-19T11:59:37.944Z,53.13
2018-10-19T12:02:10.627Z,53.13
2018-10-19T12:04:41.716Z,51.20
2018-10-19T12:07:12.766Z,50.43
2018-10-19T12:09:43.994Z,50.60
2018-10-19T12:12:14.697Z,51.90
2018-10-19T12:14:45.124Z,52.00
2018-10-19T12:17:30.414Z,53.03
2018-10-19T12:20:00.802Z,56.87
2018-10-19T12:22:31.625Z,56.10
2018-10-19T12:25:02.235Z,55.23
2018-10-19T12:28:01.253Z,55.30
2018-10-19T12:30:32.625Z,59.67
2018-10-19T12:33:05.103Z,58.37
2018-10-19T12:35:36.696Z,58.90
2018-10-19T12:38:50.744Z,59.07
2018-10-19T12:41:24.004Z,57.87
2018-10-19T12:43:55.144Z,58.43
2018-10-19T12:46:39.792Z,60.87
2018-10-19T12:49:11.934Z,64.03
2018-10-19T12:51:43.312Z,58.67
2018-10-19T12:54:14.044Z,59.87
2018-10-19T12:56:45.993Z,61.83
2018-10-19T12:59:19.524Z,62.43
2018-10-19T13:01:50.792Z,61.33
2018-10-19T13:04:27.260Z,64.63
2018-10-19T13:06:58.741Z,65.13
2018-10-19T13:09:32.182Z,64.27
2018-10-19T13:12:03.643Z,63.20
2018-10-19T13:14:33.932Z,63.33
2018-10-19T13:17:06.754Z,65.67
2018-10-19T13:19:53.852Z,64.17
2018-10-19T13:22:24.602Z,61.13
2018-10-19T13:24:56.211Z,64.87
2018-10-19T13:27:52.623Z,63.20
2018-10-19T13:30:23.832Z,64.87
2018-10-19T13:32:54.943Z,62.93
2018-10-19T13:35:26.372Z,63.10
2018-10-19T13:38:36.635Z,65.43
2018-10-19T13:41:08.825Z,63.87
2018-10-19T13:43:39.633Z,62.67
2018-10-19T13:46:10.982Z,63.23
2018-10-19T13:48:43.353Z,63.37
2018-10-19T13:51:15.280Z,64.10
2018-10-19T13:53:46.393Z,63.17
2018-10-19T13:56:17.022Z,62.47
2018-10-19T13:58:48.154Z,62.87
2018-10-19T14:01:19.652Z,58.83
2018-10-19T14:03:50.743Z,58.40
2018-10-19T14:06:21.972Z,58.27
2018-10-19T14:08:53.372Z,63.87
2018-10-19T14:11:24.672Z,62.13
2018-10-19T14:13:56.073Z,58.13
2018-10-19T14:16:28.536Z,58.83
2018-10-19T14:18:59.518Z,59.43
2018-10-19T14:21:30.592Z,59.97
2018-10-19T14:24:01.312Z,57.77
2018-10-19T14:27:18.152Z,60.17
2018-10-19T14:29:50.663Z,61.67
2018-10-19T14:32:21.728Z,58.40
2018-10-19T14:34:53.203Z,62.03
2018-10-19T14:37:29.572Z,58.27
2018-10-19T14:40:02.462Z,63.50
2018-10-19T14:42:33.172Z,61.17
2018-10-19T14:45:03.849Z,62.30
2018-10-19T14:47:35.163Z,62.60
2018-10-19T14:50:06.023Z,63.83
2018-10-19T14:52:37.543Z,65.73
2018-10-19T14:55:11.953Z,68.77
2018-10-19T14:57:43.073Z,65.97
2018-10-19T15:00:15.457Z,65.90
2018-10-19T15:02:47.002Z,66.23
2018-10-19T15:05:20.083Z,68.40
2018-10-19T15:07:52.143Z,65.83
2018-10-19T15:10:23.364Z,69.27
2018-10-19T15:12:54.062Z,68.37
2018-10-19T15:15:25.426Z,68.60
2018-10-19T15:17:57.750Z,72.23
2018-10-19T15:20:28.693Z,70.90
2018-10-19T15:22:59.626Z,68.97
2018-10-19T15:25:30.009Z,72.73
2018-10-19T15:28:06.151Z,71.60
2018-10-19T15:30:37.232Z,70.73
2018-10-19T15:33:08.170Z,71.43
2018-10-19T15:35:38.962Z,72.80
2018-10-19T15:38:10.833Z,71.50
2018-10-19T15:40:42.913Z,77.00
2018-10-19T15:43:14.053Z,74.53
2018-10-19T15:45:46.613Z,75.73
2018-10-19T15:48:18.392Z,71.97
2018-10-19T15:50:49.642Z,73.13
2018-10-19T15:53:21.157Z,75.10
2018-10-19T15:55:52.522Z,73.67
2018-10-19T15:58:26.022Z,78.00
2018-10-19T16:00:57.372Z,74.07
2018-10-19T16:03:28.183Z,72.00
2018-10-19T16:05:59.003Z,72.43
2018-10-19T16:08:36.563Z,70.70
2018-10-19T16:11:08.092Z,72.63
2018-10-19T16:13:39.872Z,77.73
2018-10-19T16:16:10.872Z,70.73
2018-10-19T16:18:41.945Z,74.77
2018-10-19T16:21:13.138Z,74.87
2018-10-19T16:23:44.732Z,71.70
2018-10-19T16:26:16.883Z,74.50
2018-10-19T16:28:47.844Z,74.40
2018-10-19T16:31:17.942Z,71.97
2018-10-19T16:33:49.373Z,73.20
2018-10-19T16:36:20.432Z,72.53
2018-10-19T16:38:51.413Z,74.83
2018-10-19T16:41:22.265Z,73.03
2018-10-19T16:43:53.572Z,73.20
2018-10-19T16:46:30.394Z,74.10
2018-10-19T16:49:02.442Z,74.50
2018-10-19T16:51:33.484Z,77.33
2018-10-19T16:54:04.899Z,72.97
2018-10-19T16:56:54.461Z,76.03
2018-10-19T16:59:26.123Z,74.30
2018-10-19T17:01:57.232Z,76.53
2018-10-19T17:04:28.992Z,77.40
2018-10-19T17:07:00.442Z,76.20
2018-10-19T17:09:31.344Z,76.23
2018-10-19T17:12:02.858Z,80.90
2018-10-19T17:14:35.093Z,76.93
2018-10-19T17:17:06.645Z,77.57
2018-10-19T17:19:38.462Z,75.90
2018-10-19T17:22:09.732Z,81.30
2018-10-19T17:24:41.413Z,77.93
2018-10-19T17:27:13.285Z,75.07
2018-10-19T17:29:44.476Z,74.43
2018-10-19T17:32:16.142Z,72.50
2018-10-19T17:34:47.702Z,73.60
2018-10-19T17:37:20.585Z,74.70
2018-10-19T17:39:51.773Z,74.97
2018-10-19T17:42:22.591Z,79.33
2018-10-19T17:44:55.232Z,76.83
2018-10-19T17:47:27.308Z,71.20
2018-10-19T17:49:58.853Z,72.60
2018-10-19T17:52:30.003Z,77.83
2018-10-19T17:55:01.853Z,75.53
2018-10-19T17:57:37.259Z,79.47
2018-10-19T18:00:10.009Z,75.23
2018-10-19T18:02:41.264Z,75.83
2018-10-19T18:05:12.804Z,77.87
2018-10-19T18:07:43.882Z,78.73
2018-10-19T18:10:15.253Z,76.93
2018-10-19T18:12:46.664Z,78.30
2018-10-19T18:15:17.790Z,76.63
2018-10-19T18:17:49.664Z,75.90
2018-10-19T18:20:20.706Z,75.80
2018-10-19T18:22:51.534Z,75.83
2018-10-19T18:25:24.383Z,83.17
2018-10-19T18:27:57.903Z,80.43
2018-10-19T18:30:28.902Z,75.63
2018-10-19T18:33:00.015Z,77.73
2018-10-19T18:35:31.258Z,77.13
2018-10-19T18:38:03.984Z,81.50
2018-10-19T18:40:36.462Z,77.30
2018-10-19T18:43:09.842Z,79.50
2018-10-19T18:45:41.620Z,80.50
2018-10-19T18:48:13.773Z,77.53
2018-10-19T18:50:45.246Z,75.47
2018-10-19T18:53:17.232Z,75.43
2018-10-19T18:55:48.655Z,74.30
2018-10-19T18:58:20.192Z,73.33
2018-10-19T19:00:51.562Z,79.87
2018-10-19T19:03:22.703Z,78.10
2018-10-19T19:05:54.192Z,75.70
2018-10-19T19:08:25.312Z,74.97
2018-10-19T19:10:56.499Z,81.80
2018-10-19T19:13:30.755Z,74.03
2018-10-19T19:16:02.532Z,72.40
2018-10-19T19:18:32.953Z,74.60
2018-10-19T19:21:04.704Z,73.73
2018-10-19T19:23:39.493Z,76.27
2018-10-19T19:26:14.962Z,78.67
2018-10-19T19:28:46.155Z,76.73
2018-10-19T19:31:18.422Z,72.97
2018-10-19T19:34:57.936Z,77.57
2018-10-19T19:37:29.782Z,69.53
2018-10-19T19:40:00.322Z,72.40
2018-10-19T19:42:36.273Z,76.43
2018-10-19T19:45:07.301Z,70.87
2018-10-19T19:47:43.403Z,74.03
2018-10-19T19:50:15.084Z,72.17
2018-10-19T19:52:46.283Z,75.30
2018-10-19T19:55:16.932Z,73.73
2018-10-19T19:57:48.663Z,74.30
2018-10-19T20:00:18.882Z,72.73
2018-10-19T20:02:50.851Z,75.47
2018-10-19T20:05:21.832Z,70.20
2018-10-19T20:07:52.923Z,68.73
2018-10-19T20:10:23.864Z,69.53
2018-10-19T20:12:56.752Z,69.20
2018-10-19T20:15:27.875Z,71.73
2018-10-19T20:18:01.073Z,66.27
2018-10-19T20:20:31.626Z,73.20
2018-10-19T20:23:03.624Z,71.27
2018-10-19T20:25:34.416Z,73.17
2018-10-19T20:28:05.806Z,69.43
2018-10-19T20:30:36.793Z,72.07
2018-10-19T20:33:08.419Z,69.20
2018-10-19T20:35:39.604Z,72.27
2018-10-19T20:38:10.782Z,68.43
2018-10-19T20:40:42.177Z,67.87
2018-10-19T20:43:14.934Z,67.47
2018-10-19T20:45:46.587Z,66.17
2018-10-19T20:48:18.043Z,69.30
2018-10-19T20:50:48.837Z,70.80
2018-10-19T20:53:21.573Z,74.13
2018-10-19T20:55:54.882Z,67.50
2018-10-19T20:58:30.133Z,70.47
2018-10-19T21:01:05.235Z,69.93
2018-10-19T21:03:37.401Z,68.83
2018-10-19T21:06:11.092Z,68.00
2018-10-19T21:08:46.104Z,66.67
2018-10-19T21:11:22.693Z,65.83
2018-10-19T21:13:59.366Z,65.93
2018-10-19T21:16:33.216Z,67.10
2018-10-19T21:19:06.835Z,63.27
2018-10-19T21:21:42.893Z,64.27
2018-10-19T21:24:16.952Z,64.97
2018-10-19T21:26:59.176Z,63.93
2018-10-19T21:29:39.884Z,63.20
2018-10-19T21:32:17.170Z,65.20
2018-10-19T21:34:53.260Z,61.93
2018-10-19T21:37:29.783Z,64.20
2018-10-19T21:40:04.703Z,65.73
2018-10-19T21:42:37.044Z,62.30
2018-10-19T21:45:18.214Z,62.90
2018-10-19T21:47:49.742Z,61.90
2018-10-19T21:50:28.883Z,65.27
2018-10-19T21:53:03.010Z,60.00
2018-10-19T21:55:39.702Z,68.20
2018-10-19T21:58:13.681Z,62.17
2018-10-19T22:00:47.663Z,66.80
2018-10-19T22:03:23.404Z,63.43
2018-10-19T22:05:58.405Z,63.13
2018-10-19T22:08:31.392Z,66.77
2018-10-19T22:11:04.702Z,64.93
2018-10-19T22:13:39.774Z,69.23
2018-10-19T22:16:14.753Z,64.83
2018-10-19T22:18:50.402Z,70.33
2018-10-19T22:21:24.176Z,65.83
2018-10-19T22:23:57.672Z,65.53
2018-10-19T22:26:32.834Z,61.87
2018-10-19T22:29:07.040Z,67.00
2018-10-19T22:31:40.426Z,63.23
2018-10-19T22:34:15.992Z,64.07
2018-10-19T22:36:47.823Z,61.80
2018-10-19T22:39:23.155Z,64.43
2018-10-19T22:41:56.332Z,63.37
2018-10-19T22:44:29.498Z,60.57
2018-10-19T22:47:05.080Z,59.83
2018-10-19T22:49:40.804Z,62.03
2018-10-19T22:52:14.814Z,65.87
2018-10-19T22:54:48.830Z,63.93
2018-10-19T22:57:22.935Z,62.00
2018-10-19T22:59:56.049Z,60.67
2018-10-19T23:02:28.892Z,59.87
2018-10-19T23:05:03.350Z,62.40
2018-10-19T23:07:37.564Z,61.40
2018-10-19T23:17:13.240Z,63.77
2018-10-19T23:19:44.712Z,64.87
2018-10-19T23:22:18.191Z,63.30
2018-10-19T23:24:51.284Z,63.10
2018-10-19T23:27:23.723Z,61.83
2018-10-19T23:29:58.612Z,62.90
2018-10-19T23:32:30.873Z,59.83
2018-10-19T23:35:03.351Z,58.47
2018-10-19T23:37:37.357Z,60.13
2018-10-19T23:40:11.852Z,61.90
2018-10-19T23:42:43.561Z,60.10
2018-10-19T23:45:15.912Z,63.40
2018-10-19T23:47:47.212Z,57.47
2018-10-19T23:50:17.722Z,59.67
2018-10-19T23:52:48.903Z,64.40
2018-10-19T23:55:20.079Z,58.57
2018-10-19T23:57:51.372Z,61.00
